Aérodrome :
LOGIN :

S'inscrire | Disclaimer

   EN    FR    IT 

 










Légende :    VFR   VFR Marginal   IFR   IFR Intensif   IFR Très Intensif
Visi : 
Plafond : 
>= 8 km
>= 3000ft
5 à 8 km
1000 à 3000 ft
1500m à 5 km
500 à 1000 ft
800 à 1500m
200 à 500 ft
< 800m
< 200 ft
Symboles :   Orages  Brouillard  Fortes neiges  Fortes précipitations  Vent > 20 kt
SIGMETs :   Divers  Orages  Givrage  Turbulence  Onde Orograph.  Cendres Volcan.






- Altitude de l'aérodrome : 526 ft
- Code IATA : LTN


EGGW - London Luton

DERNIER METAR :
  • 221450Z AUTO 25025G36KT 9999 FEW030 11/05 Q1017

METARs EXPIRÉS :
  • 221420Z AUTO 25025G37KT 9999 FEW031 11/05 Q1016
  • 221350Z AUTO 25028G41KT 9999 NCD 11/05 Q1016
  • 221320Z AUTO 25027G37KT 9999 SCT032 SCT041 11/05 Q1016
  • 221250Z AUTO 25028G38KT 9999 SCT034 12/05 Q1016
  • 221220Z AUTO 25026KT 9999 NCD 11/06 Q1016

TAF TAF EGGW
Valide du 22 à 12h jusqu'au 23 à 12h UTC


221056Z 2212/2312 26020G32KT 9999 SCT035
BECMG 2216/2219 24014KT
BECMG 2223/2302 7000 -RA BKN008
TEMPO 2302/2306 4000 RA BKN004
BECMG 2303/2306 24020G32KT 9999 NSW
PROB40
TEMPO 2306/2312 26030G42KT 6000 RA BKN012
ATIS : +44 1582 395 204



MET'MAP, la Météo Aéronautique d'un coup d'oeil ! - Copyright ORBIFLY Décembre 2007 - Disclaimer

ORBIFLY MET'MAP TEAM :

Programmation & Développement : Alexandra Zaïnal
Sur une idée originale de : Baudouin d'Aumeries
Assistance à la programmation : Marc-Olivier Méhu
Soutien technique & logistique : Manuel Goepfert

Contact : metmap@orbifly.com




SOURCES & CREDITS :

   NOAA